Atlanticjet — FMCZ — position and weather

sailwx.info

Track history (hours):
 
Tides and Currents Weather Stations Pressure Air Temp Water Temp Dewpoint Dewpoint Depression Visibility Wind Speed Wind Dir Waves Ship Positions

Atlanticjet

Last reported at 2017-Sep-17 11:46 UTC. Time now 2017-Sep-20 01:55 UTC.
Position N 16°14' W 061°33'.

Length 40 m; draft 2.3 m.

Type: Passenger vessel. MMSI: 329003100.

Date/timePositionNaut miles runAvg speedWind from/ knotsBaromVisibWave heightAir tempDewpointWater temp
2017-Sep-17 11:46N 16°14' W 061°33'0 0.0
2017-Sep-16 21:03N 16°14' W 061°33'0 0.6
2017-Sep-16 20:49N 16°14' W 061°33'1 0.1
2017-Sep-16 11:56N 16°13' W 061°32'1 2.6
2017-Sep-16 11:29N 16°14' W 061°33'1 0.1
2017-Sep-15 21:09N 16°13' W 061°32'1 4.0
2017-Sep-15 20:50N 16°14' W 061°33'1 0.1
2017-Sep-15 11:58N 16°13' W 061°32'1 2.5
2017-Sep-15 11:28N 16°14' W 061°33'0 0.0
2017-Sep-14 21:04N 16°14' W 061°32'5 1.3
2017-Sep-14 16:52N 16°10' W 061°30'615.8
2017-Sep-14 16:30N 16°14' W 061°33'0 0.0
2017-Sep-14 16:00N 16°14' W 061°33'0 0.0
2017-Sep-14 15:27N 16°14' W 061°33'0 0.0
2017-Sep-14 15:00N 16°14' W 061°33'0 0.0
2017-Sep-14 14:30N 16°14' W 061°33'2 0.7
2017-Sep-14 12:04N 16°13' W 061°32'1 9.6
2017-Sep-14 12:00N 16°13' W 061°32'3 0.2
2017-Sep-13 21:21N 16°10' W 061°30'513.3
2017-Sep-13 21:00N 16°14' W 061°33'1 0.3
2017-Sep-13 16:44N 16°13' W 061°32'1 1.5
2017-Sep-13 15:51N 16°14' W 061°33'0 0.0
2017-Sep-13 15:16N 16°14' W 061°33'  
2017-Sep-10 11:43N 16°14' W 061°33'0 0.0
2017-Sep-10 11:30N 16°14' W 061°33'3 0.1
2017-Sep-09 16:46N 16°12' W 061°31'310.3
2017-Sep-09 16:30N 16°14' W 061°33'0 0.0
2017-Sep-09 15:59N 16°14' W 061°33'0 0.0
2017-Sep-09 15:29N 16°14' W 061°33'0 0.0
2017-Sep-09 14:52N 16°14' W 061°33'0 0.2
2017-Sep-09 14:30N 16°14' W 061°33'0 0.1
2017-Sep-09 12:50N 16°14' W 061°32'0 0.0
2017-Sep-09 12:25N 16°14' W 061°32'0 0.0
2017-Sep-09 11:59N 16°14' W 061°32'0 0.0
2017-Sep-09 11:29N 16°14' W 061°32'0 0.0
2017-Sep-09 11:00N 16°14' W 061°32'0 0.0
2017-Sep-09 10:30N 16°14' W 061°32'0 0.0
2017-Sep-09 10:00N 16°14' W 061°32'0 0.0
2017-Sep-09 09:30N 16°14' W 061°32'0 0.0
2017-Sep-09 09:00N 16°14' W 061°32'0 0.0
2017-Sep-09 08:30N 16°14' W 061°32'0 0.0
2017-Sep-09 07:59N 16°14' W 061°32'0 0.0
2017-Sep-08 21:49N 16°14' W 061°32'0 0.0
2017-Sep-08 21:29N 16°14' W 061°32'0 0.0
2017-Sep-08 20:50N 16°14' W 061°32'0 0.0
2017-Sep-08 20:30N 16°14' W 061°32'0 0.2
2017-Sep-08 20:00N 16°14' W 061°32'0 0.0
2017-Sep-08 14:35N 16°14' W 061°33'0 0.0
2017-Sep-08 14:22N 16°14' W 061°33'1 0.5
2017-Sep-08 11:55N 16°13' W 061°32'1 2.6
2017-Sep-08 11:29N 16°14' W 061°33'18 1.3
2017-Sep-07 21:49N 15°59' W 061°23'1626.5
2017-Sep-07 21:12N 16°13' W 061°32'2 5.8
2017-Sep-07 20:54N 16°14' W 061°33'1 0.2
2017-Sep-07 16:37N 16°14' W 061°32'1 4.8
2017-Sep-07 16:28N 16°14' W 061°33'0 0.0
2017-Sep-07 15:56N 16°14' W 061°33'0 0.0
2017-Sep-07 15:24N 16°14' W 061°33'  
Track history (hours):
 
Tides and Currents Weather Stations Pressure Air Temp Water Temp Dewpoint Dewpoint Depression Visibility Wind Speed Wind Dir Waves Ship Positions

Atlanticjet

Last reported at 2017-Sep-17 11:46 UTC. Time now 2017-Sep-20 01:55 UTC.
Position N 16°14' W 061°33'.

Length 40 m; draft 2.3 m.

Type: Passenger vessel. MMSI: 329003100.

Date/timePositionNaut miles runAvg speedWind from/ knotsBaromVisibWave heightAir tempDewpointWater temp
2017-Sep-17 11:46N 16°14' W 061°33'0 0.0
2017-Sep-16 21:03N 16°14' W 061°33'0 0.6
2017-Sep-16 20:49N 16°14' W 061°33'1 0.1
2017-Sep-16 11:56N 16°13' W 061°32'1 2.6
2017-Sep-16 11:29N 16°14' W 061°33'1 0.1
2017-Sep-15 21:09N 16°13' W 061°32'1 4.0
2017-Sep-15 20:50N 16°14' W 061°33'1 0.1
2017-Sep-15 11:58N 16°13' W 061°32'1 2.5
2017-Sep-15 11:28N 16°14' W 061°33'0 0.0
2017-Sep-14 21:04N 16°14' W 061°32'5 1.3
2017-Sep-14 16:52N 16°10' W 061°30'615.8
2017-Sep-14 16:30N 16°14' W 061°33'0 0.0
2017-Sep-14 16:00N 16°14' W 061°33'0 0.0
2017-Sep-14 15:27N 16°14' W 061°33'0 0.0
2017-Sep-14 15:00N 16°14' W 061°33'0 0.0
2017-Sep-14 14:30N 16°14' W 061°33'2 0.7
2017-Sep-14 12:04N 16°13' W 061°32'1 9.6
2017-Sep-14 12:00N 16°13' W 061°32'3 0.2
2017-Sep-13 21:21N 16°10' W 061°30'513.3
2017-Sep-13 21:00N 16°14' W 061°33'1 0.3
2017-Sep-13 16:44N 16°13' W 061°32'1 1.5
2017-Sep-13 15:51N 16°14' W 061°33'0 0.0
2017-Sep-13 15:16N 16°14' W 061°33'  
2017-Sep-10 11:43N 16°14' W 061°33'0 0.0
2017-Sep-10 11:30N 16°14' W 061°33'3 0.1
2017-Sep-09 16:46N 16°12' W 061°31'310.3
2017-Sep-09 16:30N 16°14' W 061°33'0 0.0
2017-Sep-09 15:59N 16°14' W 061°33'0 0.0
2017-Sep-09 15:29N 16°14' W 061°33'0 0.0
2017-Sep-09 14:52N 16°14' W 061°33'0 0.2
2017-Sep-09 14:30N 16°14' W 061°33'0 0.1
2017-Sep-09 12:50N 16°14' W 061°32'0 0.0
2017-Sep-09 12:25N 16°14' W 061°32'0 0.0
2017-Sep-09 11:59N 16°14' W 061°32'0 0.0
2017-Sep-09 11:29N 16°14' W 061°32'0 0.0
2017-Sep-09 11:00N 16°14' W 061°32'0 0.0
2017-Sep-09 10:30N 16°14' W 061°32'0 0.0
2017-Sep-09 10:00N 16°14' W 061°32'0 0.0
2017-Sep-09 09:30N 16°14' W 061°32'0 0.0
2017-Sep-09 09:00N 16°14' W 061°32'0 0.0
2017-Sep-09 08:30N 16°14' W 061°32'0 0.0
2017-Sep-09 07:59N 16°14' W 061°32'0 0.0
2017-Sep-08 21:49N 16°14' W 061°32'0 0.0
2017-Sep-08 21:29N 16°14' W 061°32'0 0.0
2017-Sep-08 20:50N 16°14' W 061°32'0 0.0
2017-Sep-08 20:30N 16°14' W 061°32'0 0.2
2017-Sep-08 20:00N 16°14' W 061°32'0 0.0
2017-Sep-08 14:35N 16°14' W 061°33'0 0.0
2017-Sep-08 14:22N 16°14' W 061°33'1 0.5
2017-Sep-08 11:55N 16°13' W 061°32'1 2.6
2017-Sep-08 11:29N 16°14' W 061°33'18 1.3
2017-Sep-07 21:49N 15°59' W 061°23'1626.5
2017-Sep-07 21:12N 16°13' W 061°32'2 5.8
2017-Sep-07 20:54N 16°14' W 061°33'1 0.2
2017-Sep-07 16:37N 16°14' W 061°32'1 4.8
2017-Sep-07 16:28N 16°14' W 061°33'0 0.0
2017-Sep-07 15:56N 16°14' W 061°33'0 0.0
2017-Sep-07 15:24N 16°14' W 061°33'  

Dump ship's entire track history